ADDS METAR Data INFO
IDs: Format: Raw Decoded Include TAF

Data at: 0028 UTC 11 Dec 2017

KRRT 110015Z AUTO 13004KT 10SM CLR M11/M13 A2994 RMK AO2
KRRT 102355Z AUTO 16003KT 10SM CLR M10/M12 A2996 RMK AO2
KRRT 102335Z AUTO 00000KT 10SM CLR M10/M12 A2996 RMK AO2
KRRT 102315Z AUTO 00000KT 10SM CLR M09/M11 A2997 RMK AO2
KRRT 102255Z AUTO 18003KT 10SM SCT017 M09/M11 A2998 RMK AO2
KRRT 102235Z AUTO 20003KT 10SM BKN017 M08/M10 A2999 RMK AO2
KRRT 102215Z AUTO 18003KT 10SM OVC017 M08/M11 A3000 RMK AO2
KRRT 102155Z AUTO 13003KT 10SM OVC019 M08/M11 A3000 RMK AO2
KRRT 102135Z AUTO 10005KT 10SM BKN019 M08/M11 A3001 RMK AO2
KRRT 102115Z AUTO 10005KT 10SM BKN019 M08/M11 A3001 RMK AO2
KRRT 102055Z AUTO 10005KT 10SM BKN019 M08/M10 A3001 RMK AO2
KRRT 102035Z AUTO 11004KT 10SM SCT019 M08/M10 A3001 RMK AO2
KRRT 102015Z AUTO 15003KT 10SM BKN019 M08/M10 A3001 RMK AO2
KRRT 101955Z AUTO 16003KT 10SM BKN017 BKN065 M08/M10 A3001 RMK AO2
KRRT 101935Z AUTO 00000KT 10SM BKN017 BKN065 M07/M09 A3001 RMK AO2
KRRT 101915Z AUTO 16003KT 10SM BKN017 BKN065 M07/M09 A3001 RMK AO2
KRRT 101855Z AUTO 00000KT 10SM BKN015 OVC065 M06/M09 A3002 RMK AO2 P0001
KRRT 101835Z AUTO 00000KT 10SM BKN013 OVC065 M07/M09 A3001 RMK AO2 P0001
KRRT 101815Z AUTO 00000KT 10SM BKN013 M07/M10 A3002 RMK AO2 P0001
KRRT 101755Z AUTO 00000KT 10SM SCT013 SCT075 M07/M10 A3001 RMK AO2
KRRT 101735Z AUTO 00000KT 10SM SCT013 SCT075 M08/M10 A3001 RMK AO2
KRRT 101715Z AUTO 00000KT 10SM SCT075 M08/M10 A3001 RMK AO2
KRRT 101655Z AUTO 00000KT 10SM SCT055 SCT075 M08/M10 A3001 RMK AO2
KRRT 101635Z AUTO 00000KT 10SM SCT075 M08/M10 A3001 RMK AO2
KRRT 101615Z AUTO 00000KT 3SM -SN M08/M10 A3002 RMK AO2 SKY OBSCURED
KRRT 101555Z AUTO 00000KT 2SM -SN BKN004 BKN008 BKN016 M08/M11 A3001 RMK AO2
KRRT 101535Z AUTO 33003KT 1SM -SN BKN006 OVC014 M08/M10 A3001 RMK AO2
KRRT 101515Z AUTO 33003KT 3SM -SN OVC012 M08/M10 A3001 RMK AO2
KRRT 101455Z AUTO 33003KT 10SM -SN OVC012 M08/M11 A3001 RMK AO2
KRRT 101435Z AUTO 33003KT 10SM OVC012 M08/M11 A3001 RMK AO2
KRRT 101415Z AUTO 00000KT 10SM OVC012 M08/M11 A2999 RMK AO2
KRRT 101355Z AUTO 32004KT 10SM OVC012 M08/M11 A2999 RMK AO2
KRRT 101335Z AUTO 31003KT 10SM OVC012 M08/M11 A2997 RMK AO2
KRRT 101315Z AUTO 32004KT 10SM OVC012 M08/M10 A2998 RMK AO2
KRRT 101255Z AUTO 33004KT 10SM OVC012 M08/M10 A2998 RMK AO2
KRRT 101235Z AUTO 32006KT 10SM OVC012 M08/M10 A2997 RMK AO2
KRRT 101215Z AUTO 33005KT 10SM OVC012 M08/M10 A2996 RMK AO2
KRRT 101155Z AUTO 32005KT 10SM OVC012 M08/M09 A2996 RMK AO2
KRRT 101135Z AUTO 36004KT 10SM OVC014 M08/M09 A2994 RMK AO2
KRRT 101115Z AUTO 35004KT 10SM OVC014 M07/M09 A2994 RMK AO2
KRRT 101055Z AUTO 01005KT 10SM OVC014 M07/M09 A2993 RMK AO2
KRRT 101035Z AUTO 02006KT 10SM OVC014 M07/M09 A2993 RMK AO2
KRRT 101015Z AUTO 34007KT 10SM OVC014 M07/M09 A2992 RMK AO2
KRRT 100955Z AUTO 33007KT 10SM OVC014 M07/M09 A2992 RMK AO2
KRRT 100935Z AUTO 36006KT 10SM OVC016 M07/M09 A2992 RMK AO2
KRRT 100915Z AUTO 32006KT 10SM OVC016 M07/M09 A2991 RMK AO2
KRRT 100855Z AUTO 33006KT 10SM OVC014 M07/M09 A2990 RMK AO2
KRRT 100835Z AUTO 33005KT 10SM OVC014 M07/M09 A2990 RMK AO2
KRRT 100815Z AUTO 33005KT 10SM OVC014 M07/M09 A2988 RMK AO2
KRRT 100755Z AUTO 33004KT 10SM OVC014 M07/M09 A2987 RMK AO2
KRRT 100735Z AUTO 34005KT 10SM OVC016 M07/M09 A2985 RMK AO2
KRRT 100715Z AUTO 35006KT 10SM OVC016 M07/M09 A2984 RMK AO2
KRRT 100655Z AUTO 34006KT 10SM OVC018 M07/M09 A2983 RMK AO2
KRRT 100635Z AUTO 35005KT 10SM OVC018 M07/M09 A2983 RMK AO2
KRRT 100615Z AUTO 35006KT 10SM OVC020 M07/M09 A2982 RMK AO2
KRRT 100555Z AUTO 34004KT 10SM OVC020 M07/M08 A2982 RMK AO2
KRRT 100535Z AUTO 00000KT 10SM OVC020 M07/M08 A2981 RMK AO2
KRRT 100515Z AUTO 33003KT 10SM OVC022 M07/M08 A2980 RMK AO2
KRRT 100455Z AUTO 00000KT 10SM OVC022 M07/M08 A2979 RMK AO2
KRRT 100435Z AUTO 00000KT 10SM OVC022 M07/M09 A2976 RMK AO2
KRRT 100415Z AUTO 00000KT 10SM OVC022 M07/M09 A2975 RMK AO2
KRRT 100355Z AUTO 13003KT 10SM SCT014 OVC024 M07/M09 A2975 RMK AO2
KRRT 100335Z AUTO 13003KT 10SM SCT014 OVC024 M07/M09 A2975 RMK AO2
KRRT 100315Z AUTO 10004KT 10SM OVC026 M07/M09 A2975 RMK AO2
KRRT 100255Z AUTO 00000KT 10SM OVC028 M07/M09 A2975 RMK AO2
KRRT 100235Z AUTO 00000KT 10SM SCT017 OVC030 M07/M09 A2975 RMK AO2
KRRT 100215Z AUTO 19004KT 10SM SCT017 BKN023 OVC030 M07/M09 A2976 RMK AO2
KRRT 100155Z AUTO 00000KT 10SM BKN023 OVC030 M07/M09 A2976 RMK AO2
KRRT 100135Z AUTO 17003KT 10SM SCT016 SCT023 BKN028 M07/M09 A2976 RMK AO2
KRRT 100115Z AUTO 18004KT 10SM BKN016 BKN021 M07/M09 A2977 RMK AO2
KRRT 100055Z AUTO 00000KT 10SM BKN016 OVC022 M07/M09 A2977 RMK AO2
KRRT 100035Z AUTO 19003KT 10SM OVC016 M08/M09 A2976 RMK AO2
KRRT 100015Z AUTO 19004KT 10SM OVC016 M08/M09 A2978 RMK AO2
KRRT 092355Z AUTO 20005KT 10SM OVC016 M08/M10 A2979 RMK AO2
KRRT 092335Z AUTO 20009G14KT 10SM BKN018 M08/M10 A2978 RMK AO2
KRRT 092315Z AUTO 20007KT 10SM SCT018 SCT100 M08/M10 A2979 RMK AO2
KRRT 092255Z AUTO 19007G15KT 10SM BKN100 M08/M10 A2980 RMK AO2
KRRT 092235Z AUTO 19009KT 10SM CLR M08/M10 A2980 RMK AO2
KRRT 092215Z AUTO 18007G15KT 10SM CLR M08/M10 A2981 RMK AO2
KRRT 092155Z AUTO 19008KT 10SM SCT017 M08/M11 A2984 RMK AO2
KRRT 092135Z AUTO 19007KT 10SM BKN017 M08/M11 A2985 RMK AO2
KRRT 092115Z AUTO 19007KT 10SM BKN017 M08/M11 A2987 RMK AO2
KRRT 092055Z AUTO 20009KT 10SM SCT015 M08/M11 A2986 RMK AO2
KRRT 092035Z AUTO 19006KT 10SM SCT015 M08/M11 A2985 RMK AO2
KRRT 092015Z AUTO 20005KT 10SM SCT013 M08/M11 A2988 RMK AO2
KRRT 091955Z AUTO 20008KT 10SM BKN013 M09/M12 A2991 RMK AO2
KRRT 091935Z AUTO 19007KT 154V224 10SM OVC015 M09/M12 A2992 RMK AO2
KRRT 091915Z AUTO 21008KT 10SM OVC019 M09/M12 A2995 RMK AO2
KRRT 091855Z AUTO 21007KT 10SM OVC019 M09/M12 A2998 RMK AO2
KRRT 091835Z AUTO 21006KT 10SM SCT019 M09/M12 A3000 RMK AO2
KRRT 091815Z AUTO 23007KT 10SM CLR M10/M13 A3000 RMK AO2
KRRT 091755Z AUTO 23005KT 10SM CLR M10/M13 A3001 RMK AO2
KRRT 091735Z AUTO 22008KT 10SM CLR M11/M14 A3001 RMK AO2
KRRT 091715Z AUTO 24006KT 10SM CLR M11/M14 A3005 RMK AO2
KRRT 091655Z AUTO 24005KT 10SM CLR M11/M14 A3004 RMK AO2
KRRT 091635Z AUTO 21007KT 10SM CLR M12/M14 A3004 RMK AO2
KRRT 091615Z AUTO 23004KT 10SM CLR M12/M14 A3005 RMK AO2
KRRT 091555Z AUTO 25003KT 10SM CLR M12/M15 A3005 RMK AO2
KRRT 091535Z AUTO 27004KT 10SM CLR M13/M15 A3006 RMK AO2
KRRT 091515Z AUTO 25005KT 10SM CLR M13/M15 A3005 RMK AO2
KRRT 091455Z AUTO 25003KT 10SM CLR M13/M15 A3006 RMK AO2
KRRT 091435Z AUTO 24003KT 5SM -SN SCT019 M12/M14 A3007 RMK AO2
KRRT 091415Z AUTO 00000KT 2 1/2SM -SN OVC017 M12/M14 A3008 RMK AO2
KRRT 091355Z AUTO 00000KT 7SM -SN OVC017 M12/M14 A3008 RMK AO2
KRRT 091335Z AUTO 00000KT 7SM -SN OVC017 M12/M14 A3007 RMK AO2
KRRT 091315Z AUTO 00000KT 7SM -SN OVC019 M12/M14 A3007 RMK AO2
KRRT 091255Z AUTO 29004KT 10SM -SN OVC019 M12/M14 A3007 RMK AO2
KRRT 091235Z AUTO 31005KT 10SM OVC019 M12/M14 A3008 RMK AO2